createdAt,value
2018-06-05T00:01:33.124Z,52.73
2018-06-05T00:04:01.817Z,52.75
2018-06-05T00:06:29.677Z,52.69
2018-06-05T00:08:57.549Z,51.96
2018-06-05T00:11:25.553Z,52.31
2018-06-05T00:13:53.545Z,52.42
2018-06-05T00:16:21.485Z,52.66
2018-06-05T00:18:49.143Z,52.24
2018-06-05T00:21:16.889Z,52.41
2018-06-05T00:23:44.531Z,52.49
2018-06-05T00:26:12.400Z,52.51
2018-06-05T00:28:40.047Z,52.01
2018-06-05T00:31:07.668Z,52.42
2018-06-05T00:33:35.305Z,52.47
2018-06-05T00:36:03.072Z,52.40
2018-06-05T00:38:31.030Z,51.76
2018-06-05T00:40:58.930Z,52.18
2018-06-05T00:43:26.593Z,51.89
2018-06-05T00:45:54.523Z,52.06
2018-06-05T00:48:22.530Z,52.36
2018-06-05T00:50:50.173Z,51.62
2018-06-05T00:53:18.288Z,52.44
2018-06-05T00:55:46.252Z,51.81
2018-06-05T00:58:13.873Z,51.81
2018-06-05T01:00:41.853Z,52.46
2018-06-05T01:03:09.547Z,52.05
2018-06-05T01:05:37.192Z,52.54
2018-06-05T01:08:04.800Z,52.08
2018-06-05T01:10:33.056Z,52.56
2018-06-05T01:13:00.637Z,51.95
2018-06-05T01:15:28.338Z,52.06
2018-06-05T01:17:56.011Z,51.95
2018-06-05T01:20:23.670Z,52.58
2018-06-05T01:22:51.338Z,52.01
2018-06-05T01:25:19.525Z,52.63
2018-06-05T01:27:47.434Z,52.47
2018-06-05T01:30:15.042Z,52.22
2018-06-05T01:32:42.697Z,52.04
2018-06-05T01:35:10.405Z,52.85
2018-06-05T01:37:38.307Z,52.66
2018-06-05T01:40:06.703Z,52.20
2018-06-05T01:42:34.672Z,52.15
2018-06-05T01:45:02.297Z,51.98
2018-06-05T01:47:30.235Z,52.00
2018-06-05T01:49:58.328Z,52.00
2018-06-05T01:52:26.213Z,52.44
2018-06-05T01:54:54.042Z,52.38
2018-06-05T01:57:22.479Z,52.53
2018-06-05T01:59:50.389Z,52.28
2018-06-05T02:02:18.019Z,51.73
2018-06-05T02:04:45.686Z,51.51
2018-06-05T02:07:13.587Z,52.20
2018-06-05T02:09:41.649Z,51.59
2018-06-05T02:12:09.275Z,52.39
2018-06-05T02:14:37.726Z,51.77
2018-06-05T02:17:05.376Z,52.40
2018-06-05T02:19:33.367Z,52.24
2018-06-05T02:22:01.268Z,52.25
2018-06-05T02:24:28.960Z,52.16
2018-06-05T02:26:56.597Z,51.60
2018-06-05T02:29:24.520Z,52.04
2018-06-05T02:31:52.176Z,51.68
2018-06-05T02:34:19.871Z,51.69
2018-06-05T02:36:48.143Z,52.47
2018-06-05T02:39:16.102Z,52.34
2018-06-05T02:41:43.823Z,52.37
2018-06-05T02:44:11.511Z,51.54
2018-06-05T02:46:39.150Z,51.53
2018-06-05T02:49:07.294Z,51.97
2018-06-05T02:51:34.905Z,51.39
2018-06-05T02:54:02.530Z,52.04
2018-06-05T02:56:30.611Z,51.42
2018-06-05T02:58:58.273Z,52.35
2018-06-05T03:01:26.135Z,52.35
2018-06-05T03:03:53.814Z,52.27
2018-06-05T03:06:22.479Z,51.68
2018-06-05T03:08:50.109Z,52.58
2018-06-05T03:11:18.376Z,52.35
2018-06-05T03:13:46.369Z,51.94
2018-06-05T03:16:14.019Z,52.01
2018-06-05T03:18:42.004Z,51.81
2018-06-05T03:21:09.983Z,51.87
2018-06-05T03:23:38.909Z,52.49
2018-06-05T03:26:06.536Z,52.41
2018-06-05T03:28:34.412Z,52.47
2018-06-05T03:31:02.075Z,52.39
2018-06-05T03:33:30.024Z,52.17
2018-06-05T03:35:58.113Z,51.89
2018-06-05T03:38:26.056Z,52.06
2018-06-05T03:40:53.726Z,51.73
2018-06-05T03:43:21.802Z,51.88
2018-06-05T03:45:49.798Z,51.55
2018-06-05T03:48:17.424Z,52.37
2018-06-05T03:50:45.741Z,52.21
2018-06-05T03:53:13.377Z,51.47
2018-06-05T03:55:41.024Z,52.00
2018-06-05T03:58:09.108Z,51.41
2018-06-05T04:00:37.176Z,51.73
2018-06-05T04:03:05.341Z,51.25
2018-06-05T04:05:33.316Z,51.95
2018-06-05T04:08:01.670Z,51.16
2018-06-05T04:10:29.717Z,51.92
2018-06-05T04:12:57.591Z,51.33
2018-06-05T04:15:25.233Z,51.38
2018-06-05T04:17:53.627Z,52.01
2018-06-05T04:20:21.278Z,51.92
2018-06-05T04:22:49.178Z,51.60
2018-06-05T04:25:17.361Z,51.29
2018-06-05T04:27:44.984Z,51.19
2018-06-05T04:30:12.999Z,51.55
2018-06-05T04:32:40.649Z,51.20
2018-06-05T04:35:08.919Z,51.54
2018-06-05T04:37:36.574Z,51.39
2018-06-05T04:40:04.305Z,51.64
2018-06-05T04:42:32.213Z,50.94
2018-06-05T04:45:00.059Z,51.32
2018-06-05T04:47:27.839Z,51.31
2018-06-05T04:49:55.499Z,50.85
2018-06-05T04:52:23.134Z,51.16
2018-06-05T04:54:50.908Z,50.50
2018-06-05T04:57:19.118Z,50.35
2018-06-05T04:59:46.933Z,50.60
2018-06-05T05:02:14.578Z,50.93
2018-06-05T05:04:49.062Z,51.05
2018-06-05T05:07:17.287Z,52.09
2018-06-05T05:09:44.957Z,52.05
2018-06-05T05:12:12.749Z,51.93
2018-06-05T05:14:40.453Z,51.69
2018-06-05T05:17:08.417Z,51.06
2018-06-05T05:19:36.144Z,50.95
2018-06-05T05:22:04.371Z,51.07
2018-06-05T05:24:32.428Z,51.17
2018-06-05T05:27:00.178Z,51.14
2018-06-05T05:29:27.908Z,50.95
2018-06-05T05:31:55.551Z,50.86
2018-06-05T05:34:23.312Z,50.26
2018-06-05T05:36:51.009Z,50.78
2018-06-05T05:39:18.643Z,50.18
2018-06-05T05:41:46.333Z,50.10
2018-06-05T05:44:14.034Z,50.46
2018-06-05T05:46:41.725Z,50.49
2018-06-05T05:49:09.452Z,49.56
2018-06-05T05:51:37.173Z,50.18
2018-06-05T05:54:04.828Z,49.37
2018-06-05T05:56:32.477Z,49.57
2018-06-05T05:59:00.334Z,49.10
2018-06-05T06:01:28.016Z,49.01
2018-06-05T06:03:55.722Z,49.63
2018-06-05T06:06:23.442Z,49.95
2018-06-05T06:11:18.119Z,49.80
2018-06-05T06:13:45.845Z,49.43
2018-06-05T06:16:13.493Z,49.55
2018-06-05T06:18:41.291Z,49.34
2018-06-05T06:21:08.958Z,49.01
2018-06-05T06:23:36.634Z,49.36
2018-06-05T06:26:04.370Z,48.74
2018-06-05T06:28:32.007Z,47.93
2018-06-05T06:30:59.893Z,48.45
2018-06-05T06:33:27.840Z,47.72
2018-06-05T06:35:55.606Z,47.75
2018-06-05T06:38:23.725Z,48.14
2018-06-05T06:40:51.697Z,47.21
2018-06-05T06:43:19.754Z,48.40
2018-06-05T06:45:47.341Z,48.16
2018-06-05T06:48:15.245Z,48.35
2018-06-05T06:50:42.918Z,47.49
2018-06-05T06:53:10.570Z,47.81
2018-06-05T06:55:38.260Z,48.12
2018-06-05T06:58:05.865Z,47.98
2018-06-05T07:00:33.754Z,47.15
2018-06-05T07:03:01.690Z,47.87
2018-06-05T07:05:29.616Z,47.84
2018-06-05T07:07:57.259Z,47.85
2018-06-05T07:10:25.189Z,47.71
2018-06-05T07:12:52.813Z,46.99
2018-06-05T07:15:21.132Z,47.62
2018-06-05T07:17:48.752Z,46.90
2018-06-05T07:20:16.385Z,46.74
2018-06-05T07:22:44.096Z,47.34
2018-06-05T07:25:11.712Z,46.82
2018-06-05T07:27:39.384Z,47.14
2018-06-05T07:30:07.349Z,46.66
2018-06-05T07:32:34.956Z,47.08
2018-06-05T07:35:02.630Z,46.33
2018-06-05T07:37:30.539Z,46.25
2018-06-05T07:39:58.491Z,46.27
2018-06-05T07:42:26.366Z,46.27
2018-06-05T07:44:54.392Z,46.76
2018-06-05T07:47:22.038Z,46.30
2018-06-05T07:49:49.651Z,46.07
2018-06-05T07:52:17.670Z,46.03
2018-06-05T07:54:45.496Z,46.80
2018-06-05T07:57:13.436Z,45.97
2018-06-05T07:59:41.268Z,45.98
2018-06-05T08:02:10.684Z,46.75
2018-06-05T08:04:38.412Z,46.07
2018-06-05T08:07:06.071Z,45.63
2018-06-05T08:09:34.435Z,46.72
2018-06-05T08:12:02.297Z,45.87
2018-06-05T08:14:29.969Z,46.07
2018-06-05T08:16:57.888Z,46.53
2018-06-05T08:19:25.508Z,46.07
2018-06-05T08:21:53.381Z,46.24
2018-06-05T08:24:22.384Z,46.65
2018-06-05T08:26:51.667Z,46.77
2018-06-05T08:29:20.124Z,46.69
2018-06-05T08:31:47.852Z,46.71
2018-06-05T08:34:15.780Z,46.50
2018-06-05T08:36:43.401Z,46.01
2018-06-05T08:39:11.161Z,45.80
2018-06-05T08:41:39.109Z,46.09
2018-06-05T08:44:06.848Z,45.59
2018-06-05T08:46:34.461Z,46.44
2018-06-05T08:49:02.051Z,46.03
2018-06-05T08:51:29.753Z,45.72
2018-06-05T08:53:57.805Z,46.45
2018-06-05T08:56:25.431Z,45.76
2018-06-05T08:58:53.693Z,46.38
2018-06-05T09:01:21.983Z,46.08
2018-06-05T09:03:49.595Z,46.72
2018-06-05T09:06:17.252Z,45.72
2018-06-05T09:08:44.873Z,46.46
2018-06-05T09:11:12.770Z,46.48
2018-06-05T09:13:40.725Z,46.42
2018-06-05T09:16:08.348Z,46.33
2018-06-05T09:18:36.352Z,46.05
2018-06-05T09:21:03.972Z,46.08
2018-06-05T09:23:32.014Z,46.27
2018-06-05T09:25:59.704Z,46.03
2018-06-05T09:28:27.293Z,46.33
2018-06-05T09:30:55.560Z,45.63
2018-06-05T09:33:23.534Z,46.14
2018-06-05T09:35:51.441Z,46.41
2018-06-05T09:38:19.136Z,46.02
2018-06-05T09:40:47.339Z,45.77
2018-06-05T09:43:15.310Z,46.31
2018-06-05T09:45:42.965Z,45.72
2018-06-05T09:48:10.933Z,46.33
2018-06-05T09:50:39.175Z,46.40
2018-06-05T09:53:07.338Z,45.59
2018-06-05T09:55:34.940Z,45.78
2018-06-05T09:58:02.585Z,45.94
2018-06-05T10:00:35.799Z,45.83
2018-06-05T10:03:03.829Z,45.83
2018-06-05T10:05:31.704Z,46.51
2018-06-05T10:07:59.360Z,45.65
2018-06-05T10:10:26.993Z,45.70
2018-06-05T10:12:54.670Z,46.15
2018-06-05T10:15:22.409Z,46.44
2018-06-05T10:17:50.301Z,46.36
2018-06-05T10:20:17.988Z,45.85
2018-06-05T10:22:46.637Z,45.79
2018-06-05T10:25:14.566Z,45.71
2018-06-05T10:27:42.485Z,46.19
2018-06-05T10:30:10.339Z,45.30
2018-06-05T10:32:37.951Z,45.65
2018-06-05T10:35:05.581Z,45.92
2018-06-05T10:37:33.508Z,45.59
2018-06-05T10:40:01.361Z,46.19
2018-06-05T10:42:29.214Z,46.81
2018-06-05T10:44:56.849Z,45.55
2018-06-05T10:47:24.546Z,46.47
2018-06-05T10:49:52.481Z,45.82
2018-06-05T10:52:20.232Z,46.52
2018-06-05T10:54:48.341Z,45.93
2018-06-05T10:57:15.956Z,46.67
2018-06-05T10:59:44.257Z,46.25
2018-06-05T11:02:12.256Z,46.60
2018-06-05T11:04:39.869Z,45.73
2018-06-05T11:07:07.909Z,46.39
2018-06-05T11:09:36.049Z,45.72
2018-06-05T11:12:03.986Z,45.59
2018-06-05T11:14:31.779Z,45.79
2018-06-05T11:16:59.399Z,46.52
2018-06-05T11:19:27.285Z,46.89
2018-06-05T11:21:56.696Z,46.74
2018-06-05T11:24:24.349Z,46.94
2018-06-05T11:26:52.277Z,47.03
2018-06-05T11:29:19.919Z,46.86
2018-06-05T11:31:47.817Z,46.64
2018-06-05T11:34:15.744Z,46.52
2018-06-05T11:36:43.373Z,46.06
2018-06-05T11:39:11.345Z,46.17
2018-06-05T11:41:39.244Z,46.95
2018-06-05T11:44:06.856Z,46.83
2018-06-05T11:46:34.884Z,46.90
2018-06-05T11:49:02.515Z,46.21
2018-06-05T11:51:30.358Z,46.80
2018-06-05T11:53:58.071Z,46.17
2018-06-05T11:56:26.057Z,45.62
2018-06-05T11:58:53.918Z,46.16
2018-06-05T12:01:22.003Z,46.53
2018-06-05T12:03:49.906Z,46.77
2018-06-05T12:06:18.064Z,46.78
2018-06-05T12:08:46.216Z,45.82
2018-06-05T12:11:13.813Z,46.43
2018-06-05T12:13:42.088Z,46.49
2018-06-05T12:16:09.794Z,46.88
2018-06-05T12:18:37.411Z,47.43
2018-06-05T12:21:04.761Z,47.70
2018-06-05T12:23:48.308Z,47.89
2018-06-05T12:26:15.959Z,47.31
2018-06-05T12:28:43.713Z,47.18
2018-06-05T12:31:11.346Z,46.82
2018-06-05T12:33:39.123Z,46.79
2018-06-05T12:36:07.032Z,46.25
2018-06-05T12:38:34.677Z,46.41
2018-06-05T12:41:02.923Z,46.22
2018-06-05T12:43:31.125Z,46.41
2018-06-05T12:45:58.794Z,46.73
2018-06-05T12:48:26.692Z,46.03
2018-06-05T12:50:54.610Z,46.11
2018-06-05T12:53:22.374Z,46.78
2018-06-05T12:55:53.066Z,46.69
2018-06-05T12:58:21.597Z,46.72
2018-06-05T13:00:49.353Z,46.03
2018-06-05T13:03:17.155Z,46.27
2018-06-05T13:05:45.308Z,46.23
2018-06-05T13:08:14.841Z,45.76
2018-06-05T13:10:42.476Z,45.48
2018-06-05T13:13:10.077Z,46.30
2018-06-05T13:15:38.266Z,46.28
2018-06-05T13:18:05.928Z,45.50
2018-06-05T13:20:33.536Z,46.11
2018-06-05T13:23:01.557Z,45.65
2018-06-05T13:25:29.152Z,46.32
2018-06-05T13:27:56.759Z,45.86
2018-06-05T13:30:24.706Z,45.18
2018-06-05T13:32:52.697Z,45.72
2018-06-05T13:35:20.664Z,45.25
2018-06-05T13:37:48.661Z,45.67
2018-06-05T13:40:16.277Z,44.98
2018-06-05T13:42:44.394Z,45.81
2018-06-05T13:45:12.253Z,45.35
2018-06-05T13:47:40.453Z,45.71
2018-06-05T13:50:08.335Z,46.10
2018-06-05T13:52:36.273Z,45.08
2018-06-05T13:55:03.924Z,45.03
2018-06-05T13:57:32.086Z,45.59
2018-06-05T14:00:00.624Z,45.11
2018-06-05T14:02:28.766Z,45.10
2018-06-05T14:04:56.698Z,45.29
2018-06-05T14:07:24.345Z,44.89
2018-06-05T14:09:52.085Z,45.47
2018-06-05T14:12:19.921Z,45.02
2018-06-05T14:14:47.553Z,44.38
2018-06-05T14:17:15.501Z,45.20
2018-06-05T14:19:43.146Z,44.45
2018-06-05T14:22:10.863Z,43.17
2018-06-05T14:24:38.756Z,41.17
2018-06-05T14:27:06.374Z,39.41
2018-06-05T14:29:34.342Z,38.61
2018-06-05T14:32:01.974Z,37.52
2018-06-05T14:34:29.841Z,36.20
2018-06-05T14:36:57.634Z,35.76
2018-06-05T14:39:25.303Z,35.19
2018-06-05T14:41:52.939Z,34.96
2018-06-05T14:44:21.034Z,34.97
2018-06-05T14:46:49.263Z,35.28
2018-06-05T14:49:16.966Z,34.70
2018-06-05T14:51:44.926Z,34.80
2018-06-05T14:54:20.202Z,35.63
2018-06-05T14:56:48.254Z,35.69
2018-06-05T14:59:16.420Z,37.10
2018-06-05T15:01:44.630Z,39.00
2018-06-05T15:04:12.297Z,40.43
2018-06-05T15:06:39.921Z,41.37
2018-06-05T15:09:08.256Z,41.26
2018-06-05T15:11:35.862Z,42.07
2018-06-05T15:14:03.483Z,42.07
2018-06-05T15:16:31.453Z,43.33
2018-06-05T15:18:59.378Z,42.91
2018-06-05T15:21:27.323Z,42.66
2018-06-05T15:23:55.317Z,43.28
2018-06-05T15:26:23.006Z,43.88
2018-06-05T15:28:50.863Z,43.79
2018-06-05T15:31:18.504Z,43.26
2018-06-05T15:33:46.109Z,44.00
2018-06-05T15:36:14.445Z,44.38
2018-06-05T15:38:42.442Z,44.18
2018-06-05T15:41:10.644Z,43.43
2018-06-05T15:43:38.290Z,43.72
2018-06-05T15:46:06.204Z,44.12
2018-06-05T15:48:34.027Z,44.03
2018-06-05T15:51:01.690Z,43.35
2018-06-05T15:53:29.811Z,43.32
2018-06-05T15:55:57.784Z,44.15
2018-06-05T15:58:25.391Z,43.66
2018-06-05T16:00:53.763Z,43.81
2018-06-05T16:03:21.421Z,44.40
2018-06-05T16:05:49.053Z,44.10
2018-06-05T16:08:16.841Z,44.89
2018-06-05T16:10:47.170Z,44.35
2018-06-05T16:13:14.990Z,44.46
2018-06-05T16:15:42.602Z,44.99
2018-06-05T16:18:10.280Z,44.23
2018-06-05T16:20:37.979Z,44.03
2018-06-05T16:23:06.079Z,44.06
2018-06-05T16:25:33.962Z,43.60
2018-06-05T16:28:02.071Z,43.67
2018-06-05T16:30:29.769Z,43.79
2018-06-05T16:32:57.765Z,43.07
2018-06-05T16:35:25.430Z,43.37
2018-06-05T16:37:53.673Z,43.09
2018-06-05T16:40:22.002Z,43.53
2018-06-05T16:42:49.648Z,43.06
2018-06-05T16:45:17.243Z,43.13
2018-06-05T16:47:45.136Z,42.71
2018-06-05T16:50:12.776Z,43.06
2018-06-05T16:52:40.775Z,42.57
2018-06-05T16:55:08.698Z,42.15
2018-06-05T16:57:36.630Z,42.03
2018-06-05T17:00:04.610Z,41.76
2018-06-05T17:02:32.560Z,41.71
2018-06-05T17:05:00.442Z,41.76
2018-06-05T17:07:28.346Z,41.74
2018-06-05T17:09:56.233Z,40.98
2018-06-05T17:12:23.998Z,41.04
2018-06-05T17:14:51.824Z,41.15
2018-06-05T17:17:19.589Z,41.28
2018-06-05T17:19:47.439Z,40.12
2018-06-05T17:22:15.222Z,42.16
2018-06-05T17:24:42.910Z,43.33
2018-06-05T17:27:10.730Z,44.23
2018-06-05T17:29:38.402Z,42.83
2018-06-05T17:32:06.070Z,42.50
2018-06-05T17:34:33.825Z,43.14
2018-06-05T17:37:01.511Z,42.13
2018-06-05T17:39:29.184Z,42.33
2018-06-05T17:41:56.962Z,42.09
2018-06-05T17:44:24.669Z,41.79
2018-06-05T17:46:52.363Z,41.99
2018-06-05T17:49:21.613Z,42.18
2018-06-05T17:51:49.327Z,41.89
2018-06-05T17:54:16.949Z,41.23
2018-06-05T17:56:44.635Z,41.56
2018-06-05T17:59:12.322Z,41.34
2018-06-05T18:01:40.186Z,41.52
2018-06-05T18:04:07.870Z,41.95
2018-06-05T18:06:35.554Z,42.15
2018-06-05T18:09:03.854Z,42.72
2018-06-05T18:11:31.551Z,42.77
2018-06-05T18:13:59.230Z,42.99
2018-06-05T18:16:27.007Z,42.02
2018-06-05T18:18:54.823Z,42.65
2018-06-05T18:21:22.574Z,42.91
2018-06-05T18:23:50.264Z,42.87
2018-06-05T18:26:17.904Z,43.29
2018-06-05T18:28:45.716Z,42.79
2018-06-05T18:31:13.387Z,42.95
2018-06-05T18:33:41.236Z,43.56
2018-06-05T18:36:08.876Z,43.29
2018-06-05T18:38:36.598Z,43.15
2018-06-05T18:41:04.433Z,44.00
2018-06-05T18:43:32.119Z,43.60
2018-06-05T18:45:59.783Z,43.59
2018-06-05T18:48:27.593Z,43.43
2018-06-05T18:50:55.292Z,43.50
2018-06-05T18:53:22.940Z,44.66
2018-06-05T18:55:50.687Z,44.60
2018-06-05T18:58:18.761Z,44.32
2018-06-05T19:00:46.951Z,44.29
2018-06-05T19:03:14.830Z,44.54
2018-06-05T19:05:42.541Z,45.33
2018-06-05T19:08:10.234Z,44.60
2018-06-05T19:10:37.928Z,45.21
2018-06-05T19:13:05.568Z,45.39
2018-06-05T19:15:33.505Z,45.93
2018-06-05T19:18:01.493Z,45.05
2018-06-05T19:20:29.145Z,45.42
2018-06-05T19:22:57.001Z,45.88
2018-06-05T19:25:24.628Z,45.95
2018-06-05T19:27:52.392Z,45.43
2018-06-05T19:30:20.249Z,46.50
2018-06-05T19:32:48.089Z,45.68
2018-06-05T19:35:16.121Z,45.93
2018-06-05T19:37:43.993Z,46.61
2018-06-05T19:40:11.619Z,46.25
2018-06-05T19:42:39.507Z,46.53
2018-06-05T19:45:07.684Z,46.97
2018-06-05T19:47:35.574Z,46.83
2018-06-05T19:50:03.270Z,46.50
2018-06-05T19:52:31.318Z,46.41
2018-06-05T19:54:58.954Z,46.54
2018-06-05T19:57:27.185Z,46.84
2018-06-05T19:59:55.250Z,47.01
2018-06-05T20:02:23.304Z,47.17
2018-06-05T20:04:50.932Z,47.92
2018-06-05T20:07:18.916Z,47.64
2018-06-05T20:09:47.526Z,47.10
2018-06-05T20:12:15.464Z,47.17
2018-06-05T20:14:43.485Z,47.07
2018-06-05T20:17:11.096Z,48.12
2018-06-05T20:19:38.713Z,48.30
2018-06-05T20:22:06.640Z,48.68
2018-06-05T20:24:34.250Z,48.05
2018-06-05T20:27:02.091Z,48.93
2018-06-05T20:29:29.809Z,48.97
2018-06-05T20:31:57.689Z,48.43
2018-06-05T20:34:25.800Z,48.94
2018-06-05T20:36:53.430Z,48.57
2018-06-05T20:39:21.046Z,48.92
2018-06-05T20:41:48.969Z,49.17
2018-06-05T20:44:16.895Z,49.40
2018-06-05T20:46:44.783Z,48.78
2018-06-05T20:49:12.482Z,49.29
2018-06-05T20:51:40.106Z,49.25
2018-06-05T20:54:07.731Z,49.49
2018-06-05T20:56:35.393Z,50.31
2018-06-05T20:59:03.036Z,50.40
2018-06-05T21:01:30.949Z,50.35
2018-06-05T21:03:58.910Z,49.94
2018-06-05T21:06:26.593Z,50.42
2018-06-05T21:08:54.452Z,50.60
2018-06-05T21:11:22.453Z,50.44
2018-06-05T21:13:50.389Z,50.46
2018-06-05T21:16:18.281Z,50.07
2018-06-05T21:18:45.976Z,50.70
2018-06-05T21:21:14.189Z,50.69
2018-06-05T21:23:42.058Z,49.84
2018-06-05T21:26:10.397Z,50.04
2018-06-05T21:28:38.237Z,49.93
2018-06-05T21:31:05.822Z,50.74
2018-06-05T21:33:34.137Z,50.16
2018-06-05T21:36:01.776Z,50.46
2018-06-05T21:38:29.383Z,51.13
2018-06-05T21:40:57.250Z,50.87
2018-06-05T21:43:24.911Z,50.90
2018-06-05T21:45:53.082Z,51.01
2018-06-05T21:48:20.767Z,51.65
2018-06-05T21:50:48.496Z,51.00
2018-06-05T21:53:17.312Z,51.61
2018-06-05T21:55:44.963Z,51.66
2018-06-05T21:58:13.118Z,51.62
2018-06-05T22:00:40.947Z,51.10
2018-06-05T22:03:08.869Z,50.63
2018-06-05T22:05:36.595Z,51.79
2018-06-05T22:08:04.590Z,51.87
2018-06-05T22:10:32.213Z,51.41
2018-06-05T22:12:59.897Z,51.87
2018-06-05T22:15:27.914Z,51.91
2018-06-05T22:17:55.665Z,52.02
2018-06-05T22:20:23.599Z,51.88
2018-06-05T22:22:51.601Z,51.28
2018-06-05T22:25:19.276Z,51.55
2018-06-05T22:27:46.878Z,52.29
2018-06-05T22:30:14.833Z,52.25
2018-06-05T22:32:42.718Z,52.48
2018-06-05T22:35:10.377Z,52.53
2018-06-05T22:37:38.001Z,52.27
2018-06-05T22:40:06.049Z,51.82
2018-06-05T22:42:33.989Z,52.17
2018-06-05T22:45:01.832Z,52.07
2018-06-05T22:47:29.462Z,51.96
2018-06-05T22:49:57.071Z,51.92
2018-06-05T22:52:25.277Z,52.06
2018-06-05T22:54:52.882Z,51.42
2018-06-05T22:57:20.510Z,51.27
2018-06-05T22:59:48.136Z,51.65
2018-06-05T23:02:16.112Z,51.07
2018-06-05T23:04:43.770Z,51.38
2018-06-05T23:07:11.736Z,51.61
2018-06-05T23:09:39.814Z,51.50
2018-06-05T23:12:07.454Z,51.36
2018-06-05T23:14:35.315Z,51.24
2018-06-05T23:17:03.255Z,50.53
2018-06-05T23:19:30.920Z,51.00
2018-06-05T23:21:58.780Z,50.51
2018-06-05T23:24:26.820Z,50.72
2018-06-05T23:26:54.841Z,51.21
2018-06-05T23:29:22.740Z,50.71
2018-06-05T23:31:50.739Z,50.82
2018-06-05T23:34:18.505Z,49.86
2018-06-05T23:36:46.342Z,49.79
2018-06-05T23:39:14.616Z,49.89
2018-06-05T23:41:42.295Z,50.23
2018-06-05T23:44:10.594Z,50.33
2018-06-05T23:46:38.219Z,49.71
2018-06-05T23:49:06.076Z,50.15
2018-06-05T23:51:33.884Z,50.27
2018-06-05T23:54:01.480Z,50.00
2018-06-05T23:56:29.860Z,50.29
2018-06-05T23:58:57.562Z,50.35
